Observations at @or for Latest


KAST 170455Z AUTO 33008KT 10SM OVC009 13/12 A3011 RMK AO2 SLP196 T01330122=
KBKE 170453Z AUTO 34009KT 10SM CLR 19/09 A2996 RMK AO2 SLP119 T01940089=
KBNO 170453Z AUTO 32008KT 10SM CLR 18/03 A2999 RMK AO2 SLP117 T01780028=
KCVO 170456Z AUTO 31012G18KT 10SM CLR 18/12 A3003 RMK AO2 SLP168 T01780117=
KDLS 170453Z AUTO 29009KT 10SM CLR 23/11 A2988 RMK AO2 SLP117 T02330106=
KEUG 170454Z 05004KT 10SM FEW200 BKN300 18/12 A3002 RMK AO2 SLP165 T01830117=
KHIO 170453Z AUTO 32006KT 10SM CLR 17/11 A3004 RMK AO2 SLP170 T01670111=
KLGD 170456Z AUTO 32006KT 10SM CLR 21/09 A2995 RMK AO2 SLP277 T02110089=
KLKV 170453Z AUTO 34006KT 10SM SCT110 16/08 A3002 RMK AO2 SLP130 T01560078=
KLMT 170453Z AUTO 30008KT 10SM CLR 21/09 A3002 RMK AO2 SLP117 T02110094=
KMEH 170456Z AUTO 00000KT 10SM CLR 15/09 A3001 RMK AO2 SLP139 T01500094=
KMFR 170453Z AUTO 31003KT 10SM CLR 24/04 A2996 RMK AO2 SLP134 T02440039=
KMMV 170453Z AUTO 35005KT 10SM CLR 18/11 A3003 RMK AO2 SLP167 T01830111=
KONO 170453Z AUTO 33015G22KT 10SM CLR 28/07 A2984 RMK AO2 SLP083 T02780072=
KONP 170455Z AUTO 34010G16KT 3/4SM -DZ OVC002 11/11 A3013 RMK AO2=
KONP 170515Z AUTO 33013KT 1 1/2SM BR OVC002 11/10 A3013 RMK AO2=
KONP 170535Z AUTO 33013G18KT 1SM BR OVC002 11/11 A3013 RMK AO2=
KOTH 170456Z AUTO 36014KT 2 1/2SM -RA BR OVC002 12/11 A3010 RMK AO2 RAB31
 SLP193 P0000 T01170111=
KOTH 170522Z AUTO 36016G20KT 4SM BR OVC002 12/12 A3011 RMK AO2 RAE03 P0000=
KPDT 170453Z AUTO 28011KT 10SM CLR 22/09 A2987 RMK AO2 SLP098 T02170094=
KPDX 170453Z 33007KT 10SM FEW050 FEW170 SCT250 20/12 A3003 RMK AO2 SLP169
 T02000117=
KRBG 170453Z AUTO 36008KT 10SM CLR 24/08 A2999 RMK AO2 SLP153 T02390078=
KRDM 170456Z AUTO 34005KT 10SM CLR 19/03 A3003 RMK AO2 SLP141 T01940028=
KREO 170452Z AUTO 00000KT 16/04 A2994 RMK AO1 SLP105 T01610044=
KSLE 170456Z AUTO 34006KT 10SM CLR 18/12 A3002 RMK AO2 SLP165 T01780117=
KSXT 170456Z AUTO 34007KT 310V020 10SM CLR 15/09 A3006 RMK AO2 SLP143 T01500094=
KTTD 170453Z 31009G14KT 10SM CLR 20/12 A3002 RMK AO2 SLP166 T02000122=
KUAO 170453Z AUTO 31006KT 10SM CLR 19/11 A3004 RMK AO2 SLP170 T01940106=